sensor_id;sensor_type;location;lat;lon;timestamp;temperature;humidity
19232;DHT22;9750;48.730;10.294;2022-12-07T00:00:55;3.50;99.90
19232;DHT22;9750;48.730;10.294;2022-12-07T00:03:22;3.40;99.90
19232;DHT22;9750;48.730;10.294;2022-12-07T00:05:49;3.40;99.90
19232;DHT22;9750;48.730;10.294;2022-12-07T00:08:17;3.50;99.90
19232;DHT22;9750;48.730;10.294;2022-12-07T00:10:44;3.50;99.90
19232;DHT22;9750;48.730;10.294;2022-12-07T00:13:11;3.50;99.90
19232;DHT22;9750;48.730;10.294;2022-12-07T00:15:40;3.40;99.90
19232;DHT22;9750;48.730;10.294;2022-12-07T00:18:07;3.40;99.90
19232;DHT22;9750;48.730;10.294;2022-12-07T00:20:35;3.30;99.90
19232;DHT22;9750;48.730;10.294;2022-12-07T00:23:02;3.40;99.90
19232;DHT22;9750;48.730;10.294;2022-12-07T00:25:30;3.30;99.90
19232;DHT22;9750;48.730;10.294;2022-12-07T00:27:57;3.40;99.90
19232;DHT22;9750;48.730;10.294;2022-12-07T00:30:25;3.40;99.90
19232;DHT22;9750;48.730;10.294;2022-12-07T00:32:53;3.50;99.90
19232;DHT22;9750;48.730;10.294;2022-12-07T00:35:21;3.40;99.90
19232;DHT22;9750;48.730;10.294;2022-12-07T00:37:48;3.40;99.90
19232;DHT22;9750;48.730;10.294;2022-12-07T00:40:16;3.40;99.90
19232;DHT22;9750;48.730;10.294;2022-12-07T00:42:43;3.40;99.90
19232;DHT22;9750;48.730;10.294;2022-12-07T00:45:10;3.50;99.90
19232;DHT22;9750;48.730;10.294;2022-12-07T00:47:37;3.40;99.90
19232;DHT22;9750;48.730;10.294;2022-12-07T00:50:07;3.40;99.90
19232;DHT22;9750;48.730;10.294;2022-12-07T00:52:34;3.40;99.90
19232;DHT22;9750;48.730;10.294;2022-12-07T00:55:02;3.40;99.90
19232;DHT22;9750;48.730;10.294;2022-12-07T00:57:30;3.40;99.90
19232;DHT22;9750;48.730;10.294;2022-12-07T00:59:58;3.40;99.90
19232;DHT22;9750;48.730;10.294;2022-12-07T01:02:26;3.50;99.90
19232;DHT22;9750;48.730;10.294;2022-12-07T01:04:53;3.40;99.90
19232;DHT22;9750;48.730;10.294;2022-12-07T01:07:22;3.50;99.90
19232;DHT22;9750;48.730;10.294;2022-12-07T01:09:49;3.50;99.90
19232;DHT22;9750;48.730;10.294;2022-12-07T01:12:16;3.40;99.90
19232;DHT22;9750;48.730;10.294;2022-12-07T01:14:44;3.40;99.90
19232;DHT22;9750;48.730;10.294;2022-12-07T01:17:11;3.40;99.90
19232;DHT22;9750;48.730;10.294;2022-12-07T01:19:38;3.40;99.90
19232;DHT22;9750;48.730;10.294;2022-12-07T01:22:06;3.40;99.90
19232;DHT22;9750;48.730;10.294;2022-12-07T01:24:34;3.40;99.90
19232;DHT22;9750;48.730;10.294;2022-12-07T01:27:02;3.40;99.90
19232;DHT22;9750;48.730;10.294;2022-12-07T01:29:29;3.40;99.90
19232;DHT22;9750;48.730;10.294;2022-12-07T01:31:56;3.40;99.90
19232;DHT22;9750;48.730;10.294;2022-12-07T01:34:24;3.40;99.90
19232;DHT22;9750;48.730;10.294;2022-12-07T01:36:51;3.40;99.90
19232;DHT22;9750;48.730;10.294;2022-12-07T01:39:18;3.40;99.90
19232;DHT22;9750;48.730;10.294;2022-12-07T01:41:47;3.30;99.90
19232;DHT22;9750;48.730;10.294;2022-12-07T01:44:18;3.30;99.90
19232;DHT22;9750;48.730;10.294;2022-12-07T01:46:47;3.30;99.90
19232;DHT22;9750;48.730;10.294;2022-12-07T01:49:20;3.30;99.90
19232;DHT22;9750;48.730;10.294;2022-12-07T01:51:50;3.30;99.90
19232;DHT22;9750;48.730;10.294;2022-12-07T01:54:20;3.30;99.90
19232;DHT22;9750;48.730;10.294;2022-12-07T01:56:51;3.30;99.90
19232;DHT22;9750;48.730;10.294;2022-12-07T01:59:23;3.30;99.90
19232;DHT22;9750;48.730;10.294;2022-12-07T02:01:52;3.30;99.90
19232;DHT22;9750;48.730;10.294;2022-12-07T02:04:19;3.30;99.90
19232;DHT22;9750;48.730;10.294;2022-12-07T02:06:48;3.30;99.90
19232;DHT22;9750;48.730;10.294;2022-12-07T02:09:16;3.30;99.90
19232;DHT22;9750;48.730;10.294;2022-12-07T02:11:44;3.30;99.90
19232;DHT22;9750;48.730;10.294;2022-12-07T02:14:13;3.30;99.90
19232;DHT22;9750;48.730;10.294;2022-12-07T02:16:48;3.40;99.90
19232;DHT22;9750;48.730;10.294;2022-12-07T02:22:47;3.40;99.90
19232;DHT22;9750;48.730;10.294;2022-12-07T02:25:25;3.40;99.90
19232;DHT22;9750;48.730;10.294;2022-12-07T02:28:03;3.50;99.90
19232;DHT22;9750;48.730;10.294;2022-12-07T02:30:35;3.50;99.90
19232;DHT22;9750;48.730;10.294;2022-12-07T02:33:11;3.50;99.90
19232;DHT22;9750;48.730;10.294;2022-12-07T02:35:42;3.50;99.90
19232;DHT22;9750;48.730;10.294;2022-12-07T02:38:14;3.50;99.90
19232;DHT22;9750;48.730;10.294;2022-12-07T02:40:46;3.50;99.90
19232;DHT22;9750;48.730;10.294;2022-12-07T02:43:19;3.50;99.90
19232;DHT22;9750;48.730;10.294;2022-12-07T02:45:51;3.50;99.90
19232;DHT22;9750;48.730;10.294;2022-12-07T02:48:21;3.50;99.90
19232;DHT22;9750;48.730;10.294;2022-12-07T02:50:49;3.50;99.90
19232;DHT22;9750;48.730;10.294;2022-12-07T02:53:31;3.40;99.90
19232;DHT22;9750;48.730;10.294;2022-12-07T02:55:59;3.50;99.90
19232;DHT22;9750;48.730;10.294;2022-12-07T02:58:36;3.50;99.90
19232;DHT22;9750;48.730;10.294;2022-12-07T03:01:15;3.50;99.90
19232;DHT22;9750;48.730;10.294;2022-12-07T03:03:48;3.50;99.90
19232;DHT22;9750;48.730;10.294;2022-12-07T03:06:24;3.50;99.90
19232;DHT22;9750;48.730;10.294;2022-12-07T03:09:00;3.50;99.90
19232;DHT22;9750;48.730;10.294;2022-12-07T03:11:36;3.60;99.90
19232;DHT22;9750;48.730;10.294;2022-12-07T03:14:13;3.50;99.90
19232;DHT22;9750;48.730;10.294;2022-12-07T03:16:47;3.50;99.90
19232;DHT22;9750;48.730;10.294;2022-12-07T03:19:17;3.50;99.90
19232;DHT22;9750;48.730;10.294;2022-12-07T03:21:49;3.50;99.90
19232;DHT22;9750;48.730;10.294;2022-12-07T03:24:20;3.40;99.90
19232;DHT22;9750;48.730;10.294;2022-12-07T03:26:51;3.40;99.90
19232;DHT22;9750;48.730;10.294;2022-12-07T03:29:23;3.40;99.90
19232;DHT22;9750;48.730;10.294;2022-12-07T03:31:55;3.40;99.90
19232;DHT22;9750;48.730;10.294;2022-12-07T03:34:28;3.30;99.90
19232;DHT22;9750;48.730;10.294;2022-12-07T03:37:00;3.40;99.90
19232;DHT22;9750;48.730;10.294;2022-12-07T03:39:34;3.40;99.90
19232;DHT22;9750;48.730;10.294;2022-12-07T03:45:31;3.30;99.90
19232;DHT22;9750;48.730;10.294;2022-12-07T03:48:05;3.30;99.90
19232;DHT22;9750;48.730;10.294;2022-12-07T03:50:41;3.30;99.90
19232;DHT22;9750;48.730;10.294;2022-12-07T03:53:12;3.30;99.90
19232;DHT22;9750;48.730;10.294;2022-12-07T03:55:43;3.30;99.90
19232;DHT22;9750;48.730;10.294;2022-12-07T03:58:14;3.30;99.90
19232;DHT22;9750;48.730;10.294;2022-12-07T04:00:42;3.30;99.90
19232;DHT22;9750;48.730;10.294;2022-12-07T04:03:11;3.30;99.90
19232;DHT22;9750;48.730;10.294;2022-12-07T04:05:39;3.30;99.90
19232;DHT22;9750;48.730;10.294;2022-12-07T04:08:07;3.30;99.90
19232;DHT22;9750;48.730;10.294;2022-12-07T04:10:34;3.30;99.90
19232;DHT22;9750;48.730;10.294;2022-12-07T04:13:01;3.30;99.90
19232;DHT22;9750;48.730;10.294;2022-12-07T04:15:29;3.40;99.90
19232;DHT22;9750;48.730;10.294;2022-12-07T04:17:56;3.40;99.90
19232;DHT22;9750;48.730;10.294;2022-12-07T04:20:25;3.40;99.90
19232;DHT22;9750;48.730;10.294;2022-12-07T04:22:52;3.30;99.90
19232;DHT22;9750;48.730;10.294;2022-12-07T04:25:19;3.40;99.90
19232;DHT22;9750;48.730;10.294;2022-12-07T04:27:47;3.40;99.90
19232;DHT22;9750;48.730;10.294;2022-12-07T04:30:14;3.40;99.90
19232;DHT22;9750;48.730;10.294;2022-12-07T04:32:42;3.40;99.90
19232;DHT22;9750;48.730;10.294;2022-12-07T04:35:09;3.40;99.90
19232;DHT22;9750;48.730;10.294;2022-12-07T04:37:38;3.40;99.90
19232;DHT22;9750;48.730;10.294;2022-12-07T04:40:07;3.40;99.90
19232;DHT22;9750;48.730;10.294;2022-12-07T04:42:36;3.40;99.90
19232;DHT22;9750;48.730;10.294;2022-12-07T04:45:05;3.40;99.90
19232;DHT22;9750;48.730;10.294;2022-12-07T04:47:32;3.40;99.90
19232;DHT22;9750;48.730;10.294;2022-12-07T04:49:59;3.30;99.90
19232;DHT22;9750;48.730;10.294;2022-12-07T04:52:27;3.40;99.90
19232;DHT22;9750;48.730;10.294;2022-12-07T04:54:55;3.40;99.90
19232;DHT22;9750;48.730;10.294;2022-12-07T04:57:23;3.30;99.90
19232;DHT22;9750;48.730;10.294;2022-12-07T04:59:50;3.40;99.90
19232;DHT22;9750;48.730;10.294;2022-12-07T05:02:17;3.40;99.90
19232;DHT22;9750;48.730;10.294;2022-12-07T05:04:44;3.40;99.90
19232;DHT22;9750;48.730;10.294;2022-12-07T05:07:12;3.40;99.90
19232;DHT22;9750;48.730;10.294;2022-12-07T05:09:39;3.40;99.90
19232;DHT22;9750;48.730;10.294;2022-12-07T05:12:08;3.30;99.90
19232;DHT22;9750;48.730;10.294;2022-12-07T05:14:35;3.30;99.90
19232;DHT22;9750;48.730;10.294;2022-12-07T05:17:03;3.30;99.90
19232;DHT22;9750;48.730;10.294;2022-12-07T05:19:30;3.30;99.90
19232;DHT22;9750;48.730;10.294;2022-12-07T05:21:58;3.30;99.90
19232;DHT22;9750;48.730;10.294;2022-12-07T05:27:29;3.40;99.90
19232;DHT22;9750;48.730;10.294;2022-12-07T05:29:56;3.30;99.90
19232;DHT22;9750;48.730;10.294;2022-12-07T05:32:24;3.40;99.90
19232;DHT22;9750;48.730;10.294;2022-12-07T05:34:51;3.30;99.90
19232;DHT22;9750;48.730;10.294;2022-12-07T05:37:20;3.40;99.90
19232;DHT22;9750;48.730;10.294;2022-12-07T05:39:47;3.40;99.90
19232;DHT22;9750;48.730;10.294;2022-12-07T05:42:15;3.40;99.90
19232;DHT22;9750;48.730;10.294;2022-12-07T05:44:45;3.30;99.90
19232;DHT22;9750;48.730;10.294;2022-12-07T05:47:14;3.30;99.90
19232;DHT22;9750;48.730;10.294;2022-12-07T05:49:41;3.30;99.90
19232;DHT22;9750;48.730;10.294;2022-12-07T05:52:09;3.30;99.90
19232;DHT22;9750;48.730;10.294;2022-12-07T05:54:36;3.30;99.90
19232;DHT22;9750;48.730;10.294;2022-12-07T05:57:03;3.30;99.90
19232;DHT22;9750;48.730;10.294;2022-12-07T05:59:31;3.30;99.90
19232;DHT22;9750;48.730;10.294;2022-12-07T06:02:00;3.30;99.90
19232;DHT22;9750;48.730;10.294;2022-12-07T06:04:29;3.30;99.90
19232;DHT22;9750;48.730;10.294;2022-12-07T06:06:57;3.30;99.90
19232;DHT22;9750;48.730;10.294;2022-12-07T06:09:26;3.30;99.90
19232;DHT22;9750;48.730;10.294;2022-12-07T06:11:54;3.20;99.90
19232;DHT22;9750;48.730;10.294;2022-12-07T06:14:39;3.20;99.90
19232;DHT22;9750;48.730;10.294;2022-12-07T06:17:08;3.20;99.90
19232;DHT22;9750;48.730;10.294;2022-12-07T06:19:36;3.20;99.90
19232;DHT22;9750;48.730;10.294;2022-12-07T06:22:03;3.20;99.90
19232;DHT22;9750;48.730;10.294;2022-12-07T06:24:31;3.20;99.90
19232;DHT22;9750;48.730;10.294;2022-12-07T06:26:59;3.20;99.90
19232;DHT22;9750;48.730;10.294;2022-12-07T06:29:26;3.20;99.90
19232;DHT22;9750;48.730;10.294;2022-12-07T06:31:54;3.30;99.90
19232;DHT22;9750;48.730;10.294;2022-12-07T06:34:23;3.30;99.90
19232;DHT22;9750;48.730;10.294;2022-12-07T06:36:51;3.30;99.90
19232;DHT22;9750;48.730;10.294;2022-12-07T06:39:23;3.30;99.90
19232;DHT22;9750;48.730;10.294;2022-12-07T06:41:51;3.30;99.90
19232;DHT22;9750;48.730;10.294;2022-12-07T06:44:19;3.30;99.90
19232;DHT22;9750;48.730;10.294;2022-12-07T06:46:47;3.30;99.90
19232;DHT22;9750;48.730;10.294;2022-12-07T06:49:15;3.30;99.90
19232;DHT22;9750;48.730;10.294;2022-12-07T06:51:44;3.30;99.90
19232;DHT22;9750;48.730;10.294;2022-12-07T06:54:12;3.30;99.90
19232;DHT22;9750;48.730;10.294;2022-12-07T06:56:39;3.30;99.90
19232;DHT22;9750;48.730;10.294;2022-12-07T06:59:07;3.30;99.90
19232;DHT22;9750;48.730;10.294;2022-12-07T07:01:35;3.30;99.90
19232;DHT22;9750;48.730;10.294;2022-12-07T07:04:02;3.30;99.90
19232;DHT22;9750;48.730;10.294;2022-12-07T07:06:30;3.30;99.90
19232;DHT22;9750;48.730;10.294;2022-12-07T07:08:59;3.30;99.90
19232;DHT22;9750;48.730;10.294;2022-12-07T07:11:26;3.30;99.90
19232;DHT22;9750;48.730;10.294;2022-12-07T07:13:54;3.20;99.90
19232;DHT22;9750;48.730;10.294;2022-12-07T07:16:23;3.20;99.90
19232;DHT22;9750;48.730;10.294;2022-12-07T07:18:50;3.20;99.90
19232;DHT22;9750;48.730;10.294;2022-12-07T07:21:18;3.20;99.90
19232;DHT22;9750;48.730;10.294;2022-12-07T07:26:49;3.10;99.90
19232;DHT22;9750;48.730;10.294;2022-12-07T07:29:17;3.10;99.90
19232;DHT22;9750;48.730;10.294;2022-12-07T07:31:44;3.10;99.90
19232;DHT22;9750;48.730;10.294;2022-12-07T07:34:11;3.10;99.90
19232;DHT22;9750;48.730;10.294;2022-12-07T07:36:39;3.10;99.90
19232;DHT22;9750;48.730;10.294;2022-12-07T07:39:06;3.10;99.90
19232;DHT22;9750;48.730;10.294;2022-12-07T07:41:33;3.10;99.90
19232;DHT22;9750;48.730;10.294;2022-12-07T07:44:02;3.10;99.90
19232;DHT22;9750;48.730;10.294;2022-12-07T07:46:30;3.10;99.90
19232;DHT22;9750;48.730;10.294;2022-12-07T07:48:58;3.10;99.90
19232;DHT22;9750;48.730;10.294;2022-12-07T07:51:26;3.10;99.90
19232;DHT22;9750;48.730;10.294;2022-12-07T07:53:53;3.20;99.90
19232;DHT22;9750;48.730;10.294;2022-12-07T07:56:21;3.10;99.90
19232;DHT22;9750;48.730;10.294;2022-12-07T07:58:51;3.10;99.90
19232;DHT22;9750;48.730;10.294;2022-12-07T08:01:20;3.10;99.90
19232;DHT22;9750;48.730;10.294;2022-12-07T08:03:47;3.10;99.90
19232;DHT22;9750;48.730;10.294;2022-12-07T08:06:15;3.20;99.90
19232;DHT22;9750;48.730;10.294;2022-12-07T08:08:42;3.10;99.90
19232;DHT22;9750;48.730;10.294;2022-12-07T08:11:10;3.10;99.90
19232;DHT22;9750;48.730;10.294;2022-12-07T08:13:37;3.10;99.90
19232;DHT22;9750;48.730;10.294;2022-12-07T08:16:06;3.10;99.90
19232;DHT22;9750;48.730;10.294;2022-12-07T08:18:37;3.10;99.90
19232;DHT22;9750;48.730;10.294;2022-12-07T08:21:06;3.10;99.90
19232;DHT22;9750;48.730;10.294;2022-12-07T08:26:45;3.10;99.90
19232;DHT22;9750;48.730;10.294;2022-12-07T08:29:12;3.10;99.90
19232;DHT22;9750;48.730;10.294;2022-12-07T08:31:39;3.10;99.90
19232;DHT22;9750;48.730;10.294;2022-12-07T08:34:14;3.10;99.90
19232;DHT22;9750;48.730;10.294;2022-12-07T08:36:42;3.10;99.90
19232;DHT22;9750;48.730;10.294;2022-12-07T08:39:09;3.10;99.90
19232;DHT22;9750;48.730;10.294;2022-12-07T08:41:36;3.10;99.90
19232;DHT22;9750;48.730;10.294;2022-12-07T08:44:04;3.10;99.90
19232;DHT22;9750;48.730;10.294;2022-12-07T08:46:34;3.20;99.90
19232;DHT22;9750;48.730;10.294;2022-12-07T08:49:08;3.30;99.90
19232;DHT22;9750;48.730;10.294;2022-12-07T08:51:38;3.30;99.90
19232;DHT22;9750;48.730;10.294;2022-12-07T08:54:09;3.30;99.90
19232;DHT22;9750;48.730;10.294;2022-12-07T08:56:37;3.40;99.90
19232;DHT22;9750;48.730;10.294;2022-12-07T08:59:06;3.30;99.90
19232;DHT22;9750;48.730;10.294;2022-12-07T09:01:34;3.40;99.90
19232;DHT22;9750;48.730;10.294;2022-12-07T09:07:25;3.40;99.90
19232;DHT22;9750;48.730;10.294;2022-12-07T09:09:53;3.40;99.90
19232;DHT22;9750;48.730;10.294;2022-12-07T09:12:20;3.40;99.90
19232;DHT22;9750;48.730;10.294;2022-12-07T09:14:47;3.40;99.90
19232;DHT22;9750;48.730;10.294;2022-12-07T09:17:15;3.40;99.90
19232;DHT22;9750;48.730;10.294;2022-12-07T09:19:42;3.50;99.90
19232;DHT22;9750;48.730;10.294;2022-12-07T09:22:09;3.50;99.90
19232;DHT22;9750;48.730;10.294;2022-12-07T09:24:38;3.50;99.90
19232;DHT22;9750;48.730;10.294;2022-12-07T09:27:05;3.50;99.90
19232;DHT22;9750;48.730;10.294;2022-12-07T09:29:33;3.60;99.90
19232;DHT22;9750;48.730;10.294;2022-12-07T09:32:00;3.60;99.90
19232;DHT22;9750;48.730;10.294;2022-12-07T09:34:29;3.60;99.90
19232;DHT22;9750;48.730;10.294;2022-12-07T09:36:57;3.60;99.90
19232;DHT22;9750;48.730;10.294;2022-12-07T09:39:24;3.60;99.90
19232;DHT22;9750;48.730;10.294;2022-12-07T09:41:54;3.60;99.90
19232;DHT22;9750;48.730;10.294;2022-12-07T09:44:23;3.60;99.90
19232;DHT22;9750;48.730;10.294;2022-12-07T09:46:51;3.60;99.90
19232;DHT22;9750;48.730;10.294;2022-12-07T09:49:20;3.60;99.90
19232;DHT22;9750;48.730;10.294;2022-12-07T09:52:00;3.60;99.90
19232;DHT22;9750;48.730;10.294;2022-12-07T09:54:29;3.60;99.90
19232;DHT22;9750;48.730;10.294;2022-12-07T09:56:58;3.70;99.90
19232;DHT22;9750;48.730;10.294;2022-12-07T09:59:26;3.70;99.90
19232;DHT22;9750;48.730;10.294;2022-12-07T10:01:54;3.80;99.90
19232;DHT22;9750;48.730;10.294;2022-12-07T10:04:24;3.80;99.90
19232;DHT22;9750;48.730;10.294;2022-12-07T10:06:52;3.90;99.90
19232;DHT22;9750;48.730;10.294;2022-12-07T10:09:21;3.90;99.90
19232;DHT22;9750;48.730;10.294;2022-12-07T10:12:05;3.90;99.90
19232;DHT22;9750;48.730;10.294;2022-12-07T10:14:35;3.90;99.90
19232;DHT22;9750;48.730;10.294;2022-12-07T10:17:03;4.00;99.90
19232;DHT22;9750;48.730;10.294;2022-12-07T10:19:50;4.00;99.90
19232;DHT22;9750;48.730;10.294;2022-12-07T10:22:17;4.00;99.90
19232;DHT22;9750;48.730;10.294;2022-12-07T10:24:47;4.10;99.90
19232;DHT22;9750;48.730;10.294;2022-12-07T10:27:29;4.00;99.90
19232;DHT22;9750;48.730;10.294;2022-12-07T10:29:58;4.00;99.90
19232;DHT22;9750;48.730;10.294;2022-12-07T10:32:31;4.10;99.90
19232;DHT22;9750;48.730;10.294;2022-12-07T10:35:19;4.10;99.90
19232;DHT22;9750;48.730;10.294;2022-12-07T10:37:48;4.20;99.90
19232;DHT22;9750;48.730;10.294;2022-12-07T10:40:30;4.30;99.90
19232;DHT22;9750;48.730;10.294;2022-12-07T10:43:07;4.20;99.90
19232;DHT22;9750;48.730;10.294;2022-12-07T10:45:55;4.30;99.90
19232;DHT22;9750;48.730;10.294;2022-12-07T10:48:30;4.30;99.90
19232;DHT22;9750;48.730;10.294;2022-12-07T10:51:10;4.40;99.90
19232;DHT22;9750;48.730;10.294;2022-12-07T10:53:54;4.40;99.90
19232;DHT22;9750;48.730;10.294;2022-12-07T10:56:38;4.40;99.90
19232;DHT22;9750;48.730;10.294;2022-12-07T10:59:38;4.40;99.90
19232;DHT22;9750;48.730;10.294;2022-12-07T11:02:24;4.50;99.90
19232;DHT22;9750;48.730;10.294;2022-12-07T11:05:00;4.50;99.90
19232;DHT22;9750;48.730;10.294;2022-12-07T11:07:38;4.50;99.90
19232;DHT22;9750;48.730;10.294;2022-12-07T11:10:13;4.50;99.90
19232;DHT22;9750;48.730;10.294;2022-12-07T11:12:58;4.50;99.90
19232;DHT22;9750;48.730;10.294;2022-12-07T11:15:31;4.60;99.90
19232;DHT22;9750;48.730;10.294;2022-12-07T11:18:06;4.60;99.90
19232;DHT22;9750;48.730;10.294;2022-12-07T11:20:41;4.60;99.90
19232;DHT22;9750;48.730;10.294;2022-12-07T11:23:18;4.70;99.90
19232;DHT22;9750;48.730;10.294;2022-12-07T11:25:53;4.70;99.90
19232;DHT22;9750;48.730;10.294;2022-12-07T11:28:35;4.60;99.90
19232;DHT22;9750;48.730;10.294;2022-12-07T11:31:13;4.60;99.90
19232;DHT22;9750;48.730;10.294;2022-12-07T11:33:46;4.50;99.90
19232;DHT22;9750;48.730;10.294;2022-12-07T11:36:30;4.40;99.90
19232;DHT22;9750;48.730;10.294;2022-12-07T11:39:02;4.40;99.90
19232;DHT22;9750;48.730;10.294;2022-12-07T11:41:35;4.40;99.90
19232;DHT22;9750;48.730;10.294;2022-12-07T11:44:07;4.40;99.90
19232;DHT22;9750;48.730;10.294;2022-12-07T11:46:46;4.50;99.90
19232;DHT22;9750;48.730;10.294;2022-12-07T11:49:23;4.40;99.90
19232;DHT22;9750;48.730;10.294;2022-12-07T11:51:57;4.50;99.90
19232;DHT22;9750;48.730;10.294;2022-12-07T11:54:29;4.40;99.90
19232;DHT22;9750;48.730;10.294;2022-12-07T11:57:03;4.50;99.90
19232;DHT22;9750;48.730;10.294;2022-12-07T11:59:38;4.50;99.90
19232;DHT22;9750;48.730;10.294;2022-12-07T12:02:13;4.50;99.90
19232;DHT22;9750;48.730;10.294;2022-12-07T12:04:50;4.50;99.90
19232;DHT22;9750;48.730;10.294;2022-12-07T12:07:21;4.50;99.90
19232;DHT22;9750;48.730;10.294;2022-12-07T12:09:52;4.50;99.90
19232;DHT22;9750;48.730;10.294;2022-12-07T12:15:49;4.50;99.90
19232;DHT22;9750;48.730;10.294;2022-12-07T12:18:32;4.50;99.90
19232;DHT22;9750;48.730;10.294;2022-12-07T12:21:04;4.50;99.90
19232;DHT22;9750;48.730;10.294;2022-12-07T12:23:38;4.50;99.90
19232;DHT22;9750;48.730;10.294;2022-12-07T12:26:15;4.50;99.90
19232;DHT22;9750;48.730;10.294;2022-12-07T12:28:52;4.40;99.90
19232;DHT22;9750;48.730;10.294;2022-12-07T12:31:33;4.40;99.90
19232;DHT22;9750;48.730;10.294;2022-12-07T12:37:46;4.50;99.90
19232;DHT22;9750;48.730;10.294;2022-12-07T12:40:41;4.40;99.90
19232;DHT22;9750;48.730;10.294;2022-12-07T12:43:40;4.40;99.90
19232;DHT22;9750;48.730;10.294;2022-12-07T12:46:37;4.40;99.90
19232;DHT22;9750;48.730;10.294;2022-12-07T12:49:38;4.40;99.90
19232;DHT22;9750;48.730;10.294;2022-12-07T12:58:46;4.50;99.90
19232;DHT22;9750;48.730;10.294;2022-12-07T13:01:44;4.50;99.90
19232;DHT22;9750;48.730;10.294;2022-12-07T13:07:51;4.50;99.90
19232;DHT22;9750;48.730;10.294;2022-12-07T13:10:39;4.40;99.90
19232;DHT22;9750;48.730;10.294;2022-12-07T13:13:32;4.40;99.90
19232;DHT22;9750;48.730;10.294;2022-12-07T13:22:50;4.40;99.90
19232;DHT22;9750;48.730;10.294;2022-12-07T13:25:23;4.40;99.90
19232;DHT22;9750;48.730;10.294;2022-12-07T13:28:00;4.50;99.90
19232;DHT22;9750;48.730;10.294;2022-12-07T13:30:29;4.50;99.90
19232;DHT22;9750;48.730;10.294;2022-12-07T13:32:58;4.50;99.90
19232;DHT22;9750;48.730;10.294;2022-12-07T13:35:33;4.50;99.90
19232;DHT22;9750;48.730;10.294;2022-12-07T13:38:15;4.50;99.90
19232;DHT22;9750;48.730;10.294;2022-12-07T13:41:00;4.40;99.90
19232;DHT22;9750;48.730;10.294;2022-12-07T13:43:27;4.30;99.90
19232;DHT22;9750;48.730;10.294;2022-12-07T13:45:56;4.30;99.90
19232;DHT22;9750;48.730;10.294;2022-12-07T13:48:28;4.30;99.90
19232;DHT22;9750;48.730;10.294;2022-12-07T13:50:58;4.30;99.90
19232;DHT22;9750;48.730;10.294;2022-12-07T13:53:28;4.30;99.90
19232;DHT22;9750;48.730;10.294;2022-12-07T13:55:57;4.30;99.90
19232;DHT22;9750;48.730;10.294;2022-12-07T13:58:25;4.30;99.90
19232;DHT22;9750;48.730;10.294;2022-12-07T14:00:53;4.30;99.90
19232;DHT22;9750;48.730;10.294;2022-12-07T14:06:36;4.30;99.90
19232;DHT22;9750;48.730;10.294;2022-12-07T14:09:20;4.30;99.90
19232;DHT22;9750;48.730;10.294;2022-12-07T14:11:50;4.30;99.90
19232;DHT22;9750;48.730;10.294;2022-12-07T14:14:21;4.20;99.90
19232;DHT22;9750;48.730;10.294;2022-12-07T14:17:00;4.20;99.90
19232;DHT22;9750;48.730;10.294;2022-12-07T14:19:48;4.20;99.90
19232;DHT22;9750;48.730;10.294;2022-12-07T14:22:34;4.30;99.90
19232;DHT22;9750;48.730;10.294;2022-12-07T14:25:23;4.30;99.90
19232;DHT22;9750;48.730;10.294;2022-12-07T14:27:55;4.30;99.90
19232;DHT22;9750;48.730;10.294;2022-12-07T14:30:25;4.20;99.90
19232;DHT22;9750;48.730;10.294;2022-12-07T14:32:54;4.30;99.90
19232;DHT22;9750;48.730;10.294;2022-12-07T14:35:22;4.30;99.90
19232;DHT22;9750;48.730;10.294;2022-12-07T14:37:49;4.30;99.90
19232;DHT22;9750;48.730;10.294;2022-12-07T14:40:19;4.20;99.90
19232;DHT22;9750;48.730;10.294;2022-12-07T14:42:51;4.20;99.90
19232;DHT22;9750;48.730;10.294;2022-12-07T14:45:21;4.20;99.90
19232;DHT22;9750;48.730;10.294;2022-12-07T14:47:49;4.20;99.90
19232;DHT22;9750;48.730;10.294;2022-12-07T14:50:19;4.20;99.90
19232;DHT22;9750;48.730;10.294;2022-12-07T14:52:49;4.20;99.90
19232;DHT22;9750;48.730;10.294;2022-12-07T14:55:24;4.20;99.90
19232;DHT22;9750;48.730;10.294;2022-12-07T14:57:53;4.20;99.90
19232;DHT22;9750;48.730;10.294;2022-12-07T15:00:22;4.10;99.90
19232;DHT22;9750;48.730;10.294;2022-12-07T15:02:51;4.10;99.90
19232;DHT22;9750;48.730;10.294;2022-12-07T15:05:18;4.10;99.90
19232;DHT22;9750;48.730;10.294;2022-12-07T15:07:47;4.10;99.90
19232;DHT22;9750;48.730;10.294;2022-12-07T15:10:16;4.10;99.90
19232;DHT22;9750;48.730;10.294;2022-12-07T15:12:44;4.10;99.90
19232;DHT22;9750;48.730;10.294;2022-12-07T15:15:13;4.10;99.90
19232;DHT22;9750;48.730;10.294;2022-12-07T15:17:41;4.10;99.90
19232;DHT22;9750;48.730;10.294;2022-12-07T15:22:39;4.10;99.90
19232;DHT22;9750;48.730;10.294;2022-12-07T15:25:07;4.10;99.90
19232;DHT22;9750;48.730;10.294;2022-12-07T15:27:34;4.10;99.90
19232;DHT22;9750;48.730;10.294;2022-12-07T15:30:02;4.10;99.90
19232;DHT22;9750;48.730;10.294;2022-12-07T15:32:31;4.10;99.90
19232;DHT22;9750;48.730;10.294;2022-12-07T15:34:58;4.10;99.90
19232;DHT22;9750;48.730;10.294;2022-12-07T15:37:25;4.10;99.90
19232;DHT22;9750;48.730;10.294;2022-12-07T15:39:52;4.10;99.90
19232;DHT22;9750;48.730;10.294;2022-12-07T15:42:21;4.10;99.90
19232;DHT22;9750;48.730;10.294;2022-12-07T15:44:48;4.10;99.90
19232;DHT22;9750;48.730;10.294;2022-12-07T15:47:31;4.10;99.90
19232;DHT22;9750;48.730;10.294;2022-12-07T15:49:59;4.10;99.90
19232;DHT22;9750;48.730;10.294;2022-12-07T15:52:26;4.10;99.90
19232;DHT22;9750;48.730;10.294;2022-12-07T15:54:54;4.10;99.90
19232;DHT22;9750;48.730;10.294;2022-12-07T15:57:21;4.10;99.90
19232;DHT22;9750;48.730;10.294;2022-12-07T15:59:48;4.10;99.90
19232;DHT22;9750;48.730;10.294;2022-12-07T16:02:15;4.10;99.90
19232;DHT22;9750;48.730;10.294;2022-12-07T16:04:44;4.00;99.90
19232;DHT22;9750;48.730;10.294;2022-12-07T16:07:12;4.00;99.90
19232;DHT22;9750;48.730;10.294;2022-12-07T16:09:41;4.00;99.90
19232;DHT22;9750;48.730;10.294;2022-12-07T16:12:08;4.00;99.90
19232;DHT22;9750;48.730;10.294;2022-12-07T16:14:36;4.00;99.90
19232;DHT22;9750;48.730;10.294;2022-12-07T16:17:03;4.00;99.90
19232;DHT22;9750;48.730;10.294;2022-12-07T16:19:31;4.00;99.90
19232;DHT22;9750;48.730;10.294;2022-12-07T16:22:00;4.00;99.90
19232;DHT22;9750;48.730;10.294;2022-12-07T16:24:27;4.00;99.90
19232;DHT22;9750;48.730;10.294;2022-12-07T16:26:55;4.00;99.90
19232;DHT22;9750;48.730;10.294;2022-12-07T16:29:23;3.90;99.90
19232;DHT22;9750;48.730;10.294;2022-12-07T16:31:51;4.00;99.90
19232;DHT22;9750;48.730;10.294;2022-12-07T16:34:18;3.90;99.90
19232;DHT22;9750;48.730;10.294;2022-12-07T16:36:46;3.90;99.90
19232;DHT22;9750;48.730;10.294;2022-12-07T16:39:15;3.90;99.90
19232;DHT22;9750;48.730;10.294;2022-12-07T16:41:43;3.90;99.90
19232;DHT22;9750;48.730;10.294;2022-12-07T16:44:12;3.80;99.90
19232;DHT22;9750;48.730;10.294;2022-12-07T16:46:40;3.80;99.90
19232;DHT22;9750;48.730;10.294;2022-12-07T16:49:11;3.80;99.90
19232;DHT22;9750;48.730;10.294;2022-12-07T16:51:38;3.80;99.90
19232;DHT22;9750;48.730;10.294;2022-12-07T16:54:08;3.80;99.90
19232;DHT22;9750;48.730;10.294;2022-12-07T16:56:37;3.70;99.90